Time,TemperatureF,DewpointF,PressureIn,WindDirection,WindDirectionDegrees,WindSpeedMPH,WindSpeedGustMPH,Humidity,HourlyPrecipIn,Conditions,Clouds,dailyrainin,SoftwareType,DateUTC
2013-05-16 00:01:00,70.9,64.1,29.77,West,280,0.0,0.0,79,0.00,,---,0.00,VWS V14.01,2013-05-16 04:01:00,
2013-05-16 00:06:00,70.9,63.7,29.77,West,280,0.0,0.0,78,0.00,,---,0.00,VWS V14.01,2013-05-16 04:06:00,
2013-05-16 00:11:00,71.0,64.2,29.77,West,280,0.0,0.0,79,0.00,,---,0.00,VWS V14.01,2013-05-16 04:11:00,
2013-05-16 00:16:00,71.0,63.8,29.77,WNW,284,0.0,1.0,78,0.00,,---,0.00,VWS V14.01,2013-05-16 04:16:00,
2013-05-16 00:21:00,71.2,63.6,29.77,WNW,284,0.0,1.0,77,0.00,,---,0.00,VWS V14.01,2013-05-16 04:21:00,
2013-05-16 00:26:00,71.2,63.3,29.77,West,277,0.0,1.0,76,0.00,,---,0.00,VWS V14.01,2013-05-16 04:26:00,
2013-05-16 00:31:00,71.4,63.1,29.78,West,277,0.0,1.0,75,0.00,,---,0.00,VWS V14.01,2013-05-16 04:31:00,
2013-05-16 00:36:00,71.6,63.3,29.78,West,273,0.0,1.0,75,0.00,,---,0.00,VWS V14.01,2013-05-16 04:36:00,
2013-05-16 00:41:00,71.8,63.5,29.78,West,272,0.0,1.0,75,0.00,,---,0.00,VWS V14.01,2013-05-16 04:41:00,
2013-05-16 00:46:00,72.1,63.0,29.78,West,269,0.0,1.0,73,0.00,,---,0.00,VWS V14.01,2013-05-16 04:46:00,
2013-05-16 00:51:00,72.2,63.1,29.77,WSW,246,0.0,1.0,73,0.00,,---,0.00,VWS V14.01,2013-05-16 04:51:00,
2013-05-16 00:56:00,72.4,63.3,29.77,West,274,0.0,1.0,73,0.00,,---,0.00,VWS V14.01,2013-05-16 04:56:00,
2013-05-16 01:01:00,72.3,62.8,29.77,WSW,256,0.0,1.0,72,0.00,,---,0.00,VWS V14.01,2013-05-16 05:01:00,
2013-05-16 01:06:00,72.2,63.1,29.77,WSW,256,0.0,0.0,73,0.00,,---,0.00,VWS V14.01,2013-05-16 05:06:00,
2013-05-16 01:11:00,71.9,63.2,29.77,WSW,256,0.0,0.0,74,0.00,,---,0.00,VWS V14.01,2013-05-16 05:11:00,
2013-05-16 01:16:00,71.6,62.9,29.77,WSW,256,0.0,0.0,74,0.00,,---,0.00,VWS V14.01,2013-05-16 05:16:00,
2013-05-16 01:21:00,71.3,62.6,29.77,WSW,256,0.0,0.0,74,0.00,,---,0.00,VWS V14.01,2013-05-16 05:21:00,
2013-05-16 01:26:00,71.1,62.8,29.77,WSW,256,0.0,0.0,75,0.00,,---,0.00,VWS V14.01,2013-05-16 05:26:00,
2013-05-16 01:31:00,71.0,62.3,29.77,WSW,256,0.0,0.0,74,0.00,,---,0.00,VWS V14.01,2013-05-16 05:31:00,
2013-05-16 01:36:00,71.2,62.5,29.77,West,267,0.0,0.0,74,0.00,,---,0.00,VWS V14.01,2013-05-16 05:36:00,
2013-05-16 01:41:00,71.1,62.8,29.77,West,260,0.0,0.0,75,0.00,,---,0.00,VWS V14.01,2013-05-16 05:41:00,
2013-05-16 01:46:00,70.9,62.6,29.77,West,260,0.0,0.0,75,0.00,,---,0.00,VWS V14.01,2013-05-16 05:46:00,
2013-05-16 01:51:00,70.6,62.3,29.77,West,260,0.0,0.0,75,0.00,,---,0.00,VWS V14.01,2013-05-16 05:51:00,
2013-05-16 01:56:00,70.3,62.8,29.77,West,260,0.0,0.0,77,0.00,,---,0.00,VWS V14.01,2013-05-16 05:56:00,
2013-05-16 02:01:00,69.9,62.4,29.77,West,260,0.0,0.0,77,0.00,,---,0.00,VWS V14.01,2013-05-16 06:01:00,
2013-05-16 02:06:00,69.7,62.5,29.77,West,260,0.0,0.0,78,0.00,,---,0.00,VWS V14.01,2013-05-16 06:06:00,
2013-05-16 02:11:00,69.4,62.2,29.77,West,260,0.0,0.0,78,0.00,,---,0.00,VWS V14.01,2013-05-16 06:11:00,
2013-05-16 02:16:00,69.0,62.2,29.77,West,260,0.0,0.0,79,0.00,,---,0.00,VWS V14.01,2013-05-16 06:16:00,
2013-05-16 02:21:00,68.8,62.0,29.77,West,260,0.0,0.0,79,0.00,,---,0.00,VWS V14.01,2013-05-16 06:21:00,
2013-05-16 02:26:00,68.6,61.8,29.77,West,260,0.0,0.0,79,0.00,,---,0.00,VWS V14.01,2013-05-16 06:26:00,
2013-05-16 02:31:00,68.4,61.6,29.77,West,260,0.0,0.0,79,0.00,,---,0.00,VWS V14.01,2013-05-16 06:31:00,
2013-05-16 02:36:00,68.4,61.6,29.76,West,260,0.0,0.0,79,0.00,,---,0.00,VWS V14.01,2013-05-16 06:36:00,
2013-05-16 02:41:00,68.4,61.3,29.76,West,260,0.0,0.0,78,0.00,,---,0.00,VWS V14.01,2013-05-16 06:41:00,
2013-05-16 02:46:00,68.4,60.9,29.76,West,260,0.0,0.0,77,0.00,,---,0.00,VWS V14.01,2013-05-16 06:46:00,
2013-05-16 02:51:00,68.5,61.7,29.76,West,260,0.0,0.0,79,0.00,,---,0.00,VWS V14.01,2013-05-16 06:51:00,
2013-05-16 02:56:00,68.3,61.2,29.77,West,260,0.0,0.0,78,0.00,,---,0.00,VWS V14.01,2013-05-16 06:56:00,
2013-05-16 03:01:00,68.2,61.5,29.77,WSW,253,0.0,1.0,79,0.00,,---,0.00,VWS V14.01,2013-05-16 07:01:00,
2013-05-16 03:06:00,68.2,61.1,29.77,WSW,253,0.0,0.0,78,0.00,,---,0.00,VWS V14.01,2013-05-16 07:06:00,
2013-05-16 03:11:00,68.1,61.3,29.77,WSW,253,0.0,0.0,79,0.00,,---,0.00,VWS V14.01,2013-05-16 07:11:00,
2013-05-16 03:16:00,67.8,60.7,29.77,WSW,252,0.0,0.0,78,0.00,,---,0.00,VWS V14.01,2013-05-16 07:16:00,
2013-05-16 03:21:00,67.7,60.2,29.77,WSW,253,0.0,0.0,77,0.00,,---,0.00,VWS V14.01,2013-05-16 07:21:00,
2013-05-16 03:29:00,67.5,60.4,29.77,WSW,253,0.0,0.0,78,0.00,,---,0.00,VWS V14.01,2013-05-16 07:29:00,
2013-05-16 03:34:00,67.4,60.7,29.77,WSW,253,0.0,0.0,79,0.00,,---,0.00,VWS V14.01,2013-05-16 07:34:00,
2013-05-16 03:39:00,67.2,60.8,29.77,WSW,253,0.0,0.0,80,0.00,,---,0.00,VWS V14.01,2013-05-16 07:39:00,
2013-05-16 03:44:00,67.1,60.4,29.77,NNW,327,0.0,1.0,79,0.00,,---,0.00,VWS V14.01,2013-05-16 07:44:00,
2013-05-16 03:49:00,66.9,60.2,29.77,NNW,327,0.0,1.0,79,0.00,,---,0.00,VWS V14.01,2013-05-16 07:49:00,
2013-05-16 03:54:00,66.9,59.5,29.77,NNW,327,0.0,1.0,77,0.00,,---,0.00,VWS V14.01,2013-05-16 07:54:00,
2013-05-16 03:59:00,66.8,59.0,29.77,NW,323,0.0,1.0,76,0.00,,---,0.00,VWS V14.01,2013-05-16 07:59:00,
2013-05-16 04:04:00,66.8,59.7,29.77,NW,323,0.0,0.0,78,0.00,,---,0.00,VWS V14.01,2013-05-16 08:04:00,
2013-05-16 04:09:00,66.8,57.5,29.77,West,261,0.0,1.0,72,0.00,,---,0.00,VWS V14.01,2013-05-16 08:09:00,
2013-05-16 04:14:00,67.4,57.7,29.77,WSW,255,1.0,1.0,71,0.00,,---,0.00,VWS V14.01,2013-05-16 08:14:00,
2013-05-16 04:19:00,67.8,57.3,29.77,WSW,258,0.0,1.0,69,0.00,,---,0.00,VWS V14.01,2013-05-16 08:19:00,
2013-05-16 04:24:00,68.0,58.3,29.77,WSW,258,0.0,1.0,71,0.00,,---,0.00,VWS V14.01,2013-05-16 08:24:00,
2013-05-16 04:29:00,67.7,58.0,29.77,West,259,0.0,1.0,71,0.00,,---,0.00,VWS V14.01,2013-05-16 08:29:00,
2013-05-16 04:34:00,67.5,58.2,29.77,West,259,0.0,0.0,72,0.00,,---,0.00,VWS V14.01,2013-05-16 08:34:00,
2013-05-16 04:39:00,67.2,58.6,29.77,West,259,0.0,0.0,74,0.00,,---,0.00,VWS V14.01,2013-05-16 08:39:00,
2013-05-16 04:44:00,66.8,58.6,29.77,West,259,0.0,0.0,75,0.00,,---,0.00,VWS V14.01,2013-05-16 08:44:00,
2013-05-16 04:49:00,66.5,58.3,29.77,West,259,0.0,0.0,75,0.00,,---,0.00,VWS V14.01,2013-05-16 08:49:00,
2013-05-16 04:54:00,66.3,58.5,29.77,WSW,258,0.0,0.0,76,0.00,,---,0.00,VWS V14.01,2013-05-16 08:54:00,
2013-05-16 04:59:00,66.0,58.2,29.77,West,259,0.0,0.0,76,0.00,,---,0.00,VWS V14.01,2013-05-16 08:59:00,
2013-05-16 05:04:00,65.8,58.0,29.78,West,259,0.0,0.0,76,0.00,,---,0.00,VWS V14.01,2013-05-16 09:04:00,
2013-05-16 05:09:00,65.6,57.8,29.78,West,259,0.0,0.0,76,0.00,,---,0.00,VWS V14.01,2013-05-16 09:09:00,
2013-05-16 05:14:00,65.6,57.8,29.78,WSW,257,0.0,1.0,76,0.00,,---,0.00,VWS V14.01,2013-05-16 09:14:00,
2013-05-16 05:19:00,65.5,57.4,29.78,WSW,257,0.0,1.0,75,0.00,,---,0.00,VWS V14.01,2013-05-16 09:19:00,
2013-05-16 05:24:00,65.4,57.3,29.78,WSW,257,0.0,1.0,75,0.00,,---,0.00,VWS V14.01,2013-05-16 09:24:00,
2013-05-16 05:29:00,65.4,57.3,29.78,WNW,285,0.0,1.0,75,0.00,,---,0.00,VWS V14.01,2013-05-16 09:29:00,
2013-05-16 05:34:00,65.4,56.9,29.78,WNW,285,0.0,0.0,74,0.00,,---,0.00,VWS V14.01,2013-05-16 09:34:00,
2013-05-16 05:39:00,65.3,56.4,29.79,WNW,285,0.0,0.0,73,0.00,,---,0.00,VWS V14.01,2013-05-16 09:39:00,
2013-05-16 05:44:00,65.1,56.6,29.79,WNW,285,0.0,0.0,74,0.00,,---,0.00,VWS V14.01,2013-05-16 09:44:00,
2013-05-16 05:49:00,65.0,56.2,29.79,WNW,285,0.0,1.0,73,0.00,,---,0.00,VWS V14.01,2013-05-16 09:49:00,
2013-05-16 05:54:00,64.9,56.4,29.79,WNW,286,0.0,1.0,74,0.00,,---,0.00,VWS V14.01,2013-05-16 09:54:00,
2013-05-16 05:59:00,64.9,56.4,29.79,WNW,285,0.0,1.0,74,0.00,,---,0.00,VWS V14.01,2013-05-16 09:59:00,
2013-05-16 06:04:00,64.9,56.4,29.79,WNW,285,0.0,0.0,74,0.00,,---,0.00,VWS V14.01,2013-05-16 10:04:00,
2013-05-16 06:09:00,64.9,56.4,29.79,WNW,285,0.0,0.0,74,0.00,,---,0.00,VWS V14.01,2013-05-16 10:09:00,
2013-05-16 06:14:00,64.9,56.4,29.79,WNW,285,0.0,0.0,74,0.00,,---,0.00,VWS V14.01,2013-05-16 10:14:00,
2013-05-16 06:19:00,64.9,56.4,29.80,WNW,285,0.0,0.0,74,0.00,,---,0.00,VWS V14.01,2013-05-16 10:19:00,
2013-05-16 06:24:00,64.8,56.3,29.80,WNW,285,0.0,0.0,74,0.00,,---,0.00,VWS V14.01,2013-05-16 10:24:00,
2013-05-16 06:29:00,64.7,56.6,29.80,WNW,285,0.0,0.0,75,0.00,,---,0.00,VWS V14.01,2013-05-16 10:29:00,
2013-05-16 06:34:00,64.5,56.4,29.81,WNW,285,0.0,0.0,75,0.00,,---,0.00,VWS V14.01,2013-05-16 10:34:00,
2013-05-16 06:39:00,64.4,56.7,29.81,WNW,285,0.0,0.0,76,0.00,,---,0.00,VWS V14.01,2013-05-16 10:39:00,
2013-05-16 06:44:00,64.3,57.0,29.81,WNW,285,0.0,0.0,77,0.00,,---,0.00,VWS V14.01,2013-05-16 10:44:00,
2013-05-16 06:49:00,64.3,57.0,29.81,WNW,285,0.0,0.0,77,0.00,,---,0.00,VWS V14.01,2013-05-16 10:49:00,
2013-05-16 06:54:00,64.5,57.5,29.82,WNW,285,0.0,0.0,78,0.00,,---,0.00,VWS V14.01,2013-05-16 10:54:00,
2013-05-16 06:59:00,64.6,57.6,29.82,WNW,285,0.0,0.0,78,0.00,,---,0.00,VWS V14.01,2013-05-16 10:59:00,
2013-05-16 07:04:00,64.7,57.7,29.82,WNW,285,0.0,0.0,78,0.00,,---,0.00,VWS V14.01,2013-05-16 11:04:00,
2013-05-16 07:09:00,64.8,57.8,29.82,WNW,285,0.0,1.0,78,0.00,,---,0.00,VWS V14.01,2013-05-16 11:09:00,
2013-05-16 07:14:00,64.9,58.2,29.82,WNW,285,0.0,1.0,79,0.00,,---,0.00,VWS V14.01,2013-05-16 11:14:00,
2013-05-16 07:19:00,64.9,58.6,29.83,WNW,285,0.0,1.0,80,0.00,,---,0.00,VWS V14.01,2013-05-16 11:19:00,
2013-05-16 07:24:00,64.8,58.8,29.83,WNW,285,0.0,1.0,81,0.00,,---,0.00,VWS V14.01,2013-05-16 11:24:00,
2013-05-16 07:29:00,64.8,58.8,29.83,WNW,285,0.0,1.0,81,0.00,,---,0.00,VWS V14.01,2013-05-16 11:29:00,
2013-05-16 07:34:00,64.8,58.8,29.83,WNW,285,0.0,0.0,81,0.00,,---,0.00,VWS V14.01,2013-05-16 11:34:00,
2013-05-16 07:39:00,64.9,59.6,29.84,WNW,285,0.0,0.0,83,0.00,,---,0.00,VWS V14.01,2013-05-16 11:39:00,
2013-05-16 07:44:00,65.2,59.9,29.84,WNW,285,0.0,1.0,83,0.00,,---,0.00,VWS V14.01,2013-05-16 11:44:00,
2013-05-16 07:49:00,65.5,60.2,29.84,WNW,285,0.0,1.0,83,0.00,,---,0.00,VWS V14.01,2013-05-16 11:49:00,
2013-05-16 07:54:00,66.2,60.5,29.84,WNW,285,0.0,1.0,82,0.00,,---,0.00,VWS V14.01,2013-05-16 11:54:00,
2013-05-16 07:59:00,66.8,60.8,29.84,WNW,285,0.0,1.0,81,0.00,,---,0.00,VWS V14.01,2013-05-16 11:59:00,
2013-05-16 08:04:00,67.7,60.2,29.84,WNW,285,0.0,0.0,77,0.00,,---,0.00,VWS V14.01,2013-05-16 12:04:00,
2013-05-16 08:09:00,68.6,61.8,29.84,WNW,285,0.0,0.0,79,0.00,,---,0.00,VWS V14.01,2013-05-16 12:09:00,
2013-05-16 08:14:00,69.3,62.2,29.84,WNW,285,0.0,0.0,78,0.00,,---,0.00,VWS V14.01,2013-05-16 12:14:00,
2013-05-16 08:19:00,69.9,61.2,29.84,WNW,285,0.0,0.0,74,0.00,,---,0.00,VWS V14.01,2013-05-16 12:19:00,
2013-05-16 08:24:00,70.5,62.6,29.85,WNW,285,0.0,0.0,76,0.00,,---,0.00,VWS V14.01,2013-05-16 12:24:00,
2013-05-16 08:29:00,71.1,62.4,29.85,WNW,285,0.0,0.0,74,0.00,,---,0.00,VWS V14.01,2013-05-16 12:29:00,
2013-05-16 08:34:00,71.9,62.8,29.85,WNW,286,0.0,0.0,73,0.00,,---,0.00,VWS V14.01,2013-05-16 12:34:00,
2013-05-16 08:39:00,72.4,62.9,29.85,WNW,285,0.0,0.0,72,0.00,,---,0.00,VWS V14.01,2013-05-16 12:39:00,
2013-05-16 08:44:00,72.7,63.2,29.85,WNW,285,0.0,0.0,72,0.00,,---,0.00,VWS V14.01,2013-05-16 12:44:00,
2013-05-16 08:49:00,72.9,64.1,29.85,WNW,285,0.0,0.0,74,0.00,,---,0.00,VWS V14.01,2013-05-16 12:49:00,
2013-05-16 08:54:00,73.1,63.2,29.85,WNW,285,0.0,0.0,71,0.00,,---,0.00,VWS V14.01,2013-05-16 12:54:00,
2013-05-16 08:59:00,73.3,63.3,29.85,WNW,285,0.0,0.0,71,0.00,,---,0.00,VWS V14.01,2013-05-16 12:59:00,
2013-05-16 09:04:00,73.6,64.0,29.85,WNW,285,0.0,0.0,72,0.00,,---,0.00,VWS V14.01,2013-05-16 13:04:00,
2013-05-16 09:09:00,73.6,64.0,29.85,WNW,285,0.0,0.0,72,0.00,,---,0.00,VWS V14.01,2013-05-16 13:09:00,
2013-05-16 09:14:00,73.9,63.9,29.86,WNW,285,0.0,0.0,71,0.00,,---,0.00,VWS V14.01,2013-05-16 13:14:00,
2013-05-16 09:19:00,74.3,64.7,29.85,WNW,285,0.0,0.0,72,0.00,,---,0.00,VWS V14.01,2013-05-16 13:19:00,
2013-05-16 09:24:00,74.7,65.1,29.86,WNW,285,0.0,0.0,72,0.00,,---,0.00,VWS V14.01,2013-05-16 13:24:00,
2013-05-16 09:29:00,74.9,64.9,29.86,WNW,285,0.0,0.0,71,0.00,,---,0.00,VWS V14.01,2013-05-16 13:29:00,
2013-05-16 09:34:00,75.1,64.7,29.86,WNW,285,0.0,0.0,70,0.00,,---,0.00,VWS V14.01,2013-05-16 13:34:00,
2013-05-16 09:39:00,75.3,66.1,29.85,WNW,286,0.0,0.0,73,0.00,,---,0.00,VWS V14.01,2013-05-16 13:39:00,
2013-05-16 09:44:00,75.6,65.1,29.85,WNW,285,0.0,0.0,70,0.00,,---,0.00,VWS V14.01,2013-05-16 13:44:00,
2013-05-16 09:49:00,76.0,65.1,29.85,WNW,285,0.0,0.0,69,0.00,,---,0.00,VWS V14.01,2013-05-16 13:49:00,
2013-05-16 09:54:00,76.4,65.5,29.85,WNW,285,0.0,0.0,69,0.00,,---,0.00,VWS V14.01,2013-05-16 13:54:00,
2013-05-16 09:59:00,77.2,63.2,29.85,WSW,245,1.0,1.0,62,0.00,,---,0.00,VWS V14.01,2013-05-16 13:59:00,
2013-05-16 10:04:00,78.3,65.1,29.85,WNW,292,0.0,1.0,64,0.00,,---,0.00,VWS V14.01,2013-05-16 14:04:00,
2013-05-16 10:09:00,79.2,63.2,29.85,NW,316,0.0,1.0,58,0.00,,---,0.00,VWS V14.01,2013-05-16 14:09:00,
2013-05-16 10:14:00,79.5,61.9,29.85,West,272,0.0,3.0,55,0.00,,---,0.00,VWS V14.01,2013-05-16 14:14:00,
2013-05-16 10:19:00,79.2,61.1,29.85,SW,235,0.0,3.0,54,0.00,,---,0.00,VWS V14.01,2013-05-16 14:19:00,
2013-05-16 10:24:00,78.8,61.8,29.85,West,259,0.0,3.0,56,0.00,,---,0.00,VWS V14.01,2013-05-16 14:24:00,
2013-05-16 10:29:00,78.7,64.1,29.85,West,259,0.0,3.0,61,0.00,,---,0.00,VWS V14.01,2013-05-16 14:29:00,
2013-05-16 10:34:00,78.8,60.8,29.85,WSW,243,0.0,3.0,54,0.00,,---,0.00,VWS V14.01,2013-05-16 14:34:00,
2013-05-16 10:39:00,79.4,62.3,29.85,West,277,1.0,3.0,56,0.00,,---,0.00,VWS V14.01,2013-05-16 14:39:00,
2013-05-16 10:44:00,80.0,61.3,29.85,ESE,119,3.0,3.0,53,0.00,,---,0.00,VWS V14.01,2013-05-16 14:44:00,
2013-05-16 10:49:00,80.5,62.3,29.85,WSW,238,0.0,3.0,54,0.00,,---,0.00,VWS V14.01,2013-05-16 14:49:00,
2013-05-16 10:54:00,81.6,60.6,29.85,West,277,1.0,3.0,49,0.00,,---,0.00,VWS V14.01,2013-05-16 14:54:00,
2013-05-16 10:59:00,81.6,61.2,29.85,West,280,1.0,4.0,50,0.00,,---,0.00,VWS V14.01,2013-05-16 14:59:00,
2013-05-16 11:04:00,81.3,60.3,29.85,WSW,242,2.0,2.0,49,0.00,,---,0.00,VWS V14.01,2013-05-16 15:04:00,
2013-05-16 11:08:00,81.3,61.5,29.85,SW,235,0.0,2.0,51,0.00,,---,0.00,VWS V14.01,2013-05-16 15:08:00,
2013-05-16 11:13:00,81.5,62.2,29.86,SW,236,0.0,2.0,52,0.00,,---,0.00,VWS V14.01,2013-05-16 15:13:00,
2013-05-16 11:18:00,81.2,60.8,29.86,WSW,257,0.0,5.0,50,0.00,,---,0.00,VWS V14.01,2013-05-16 15:18:00,
2013-05-16 11:23:00,81.0,61.7,29.85,SSW,198,1.0,5.0,52,0.00,,---,0.00,VWS V14.01,2013-05-16 15:23:00,
2013-05-16 11:28:00,80.8,62.6,29.85,WSW,249,0.0,5.0,54,0.00,,---,0.00,VWS V14.01,2013-05-16 15:28:00,
2013-05-16 11:33:00,81.2,61.4,29.85,WSW,252,2.0,2.0,51,0.00,,---,0.00,VWS V14.01,2013-05-16 15:33:00,
2013-05-16 11:38:00,82.1,61.1,29.85,SSW,200,1.0,6.0,49,0.00,,---,0.00,VWS V14.01,2013-05-16 15:38:00,
2013-05-16 11:43:00,82.7,60.4,29.85,North,11,1.0,7.0,47,0.00,,---,0.00,VWS V14.01,2013-05-16 15:43:00,
2013-05-16 11:48:00,82.9,59.4,29.85,SSW,198,0.0,7.0,45,0.00,,---,0.00,VWS V14.01,2013-05-16 15:48:00,
2013-05-16 11:53:00,83.2,60.9,29.86,SE,125,0.0,7.0,47,0.00,,---,0.00,VWS V14.01,2013-05-16 15:53:00,
2013-05-16 11:58:00,83.9,60.3,29.86,WSW,246,0.0,7.0,45,0.00,,---,0.00,VWS V14.01,2013-05-16 15:58:00,
2013-05-16 12:03:00,84.3,60.0,29.86,WSW,257,4.0,8.0,44,0.00,,---,0.00,VWS V14.01,2013-05-16 16:03:00,
2013-05-16 12:08:00,84.4,61.4,29.86,WNW,302,1.0,8.0,46,0.00,,---,0.00,VWS V14.01,2013-05-16 16:08:00,
2013-05-16 12:13:00,84.8,61.1,29.86,West,262,2.0,8.0,45,0.00,,---,0.00,VWS V14.01,2013-05-16 16:13:00,
2013-05-16 12:18:00,84.9,59.9,29.86,North,8,8.0,8.0,43,0.00,,---,0.00,VWS V14.01,2013-05-16 16:18:00,
2013-05-16 12:23:00,84.2,59.3,29.86,SE,126,1.0,8.0,43,0.00,,---,0.00,VWS V14.01,2013-05-16 16:23:00,
2013-05-16 12:28:00,83.7,60.7,29.86,WNW,287,1.0,8.0,46,0.00,,---,0.00,VWS V14.01,2013-05-16 16:28:00,
2013-05-16 12:33:00,82.9,60.6,29.86,East,94,1.0,1.0,47,0.00,,---,0.00,VWS V14.01,2013-05-16 16:33:00,
2013-05-16 12:38:00,82.0,59.8,29.86,WSW,250,0.0,5.0,47,0.00,,---,0.00,VWS V14.01,2013-05-16 16:38:00,
2013-05-16 12:43:00,81.3,62.0,29.86,SW,236,1.0,5.0,52,0.00,,---,0.00,VWS V14.01,2013-05-16 16:43:00,
2013-05-16 12:48:00,79.4,63.8,29.86,WSW,255,1.0,5.0,59,0.00,,---,0.00,VWS V14.01,2013-05-16 16:48:00,
2013-05-16 12:53:00,77.5,63.9,29.86,West,276,0.0,5.0,63,0.01,,---,0.01,VWS V14.01,2013-05-16 16:53:00,
2013-05-16 12:58:00,76.3,65.4,29.86,West,276,0.0,5.0,69,0.01,,---,0.01,VWS V14.01,2013-05-16 16:58:00,
2013-05-16 13:03:00,75.8,66.5,29.85,WSW,245,1.0,1.0,73,0.01,,---,0.01,VWS V14.01,2013-05-16 17:03:00,
2013-05-16 13:08:00,75.9,66.2,29.85,SE,142,0.0,1.0,72,0.01,,---,0.01,VWS V14.01,2013-05-16 17:08:00,
2013-05-16 13:13:00,76.7,66.6,29.84,SE,142,0.0,1.0,71,0.01,,---,0.01,VWS V14.01,2013-05-16 17:13:00,
2013-05-16 13:18:00,77.3,63.7,29.83,WSW,256,0.0,2.0,63,0.01,,---,0.01,VWS V14.01,2013-05-16 17:18:00,
2013-05-16 13:23:00,77.6,65.8,29.83,WSW,256,0.0,2.0,67,0.01,,---,0.01,VWS V14.01,2013-05-16 17:23:00,
2013-05-16 13:28:00,77.4,65.2,29.83,WSW,246,0.0,2.0,66,0.01,,---,0.01,VWS V14.01,2013-05-16 17:28:00,
2013-05-16 13:33:00,77.3,66.8,29.83,WSW,246,0.0,0.0,70,0.01,,---,0.01,VWS V14.01,2013-05-16 17:33:00,
2013-05-16 13:38:00,77.1,65.7,29.83,WSW,246,0.0,0.0,68,0.01,,---,0.01,VWS V14.01,2013-05-16 17:38:00,
2013-05-16 13:43:00,76.8,65.4,29.83,WSW,246,0.0,0.0,68,0.01,,---,0.01,VWS V14.01,2013-05-16 17:43:00,
2013-05-16 13:48:00,76.6,66.1,29.83,WSW,255,0.0,2.0,70,0.01,,---,0.01,VWS V14.01,2013-05-16 17:48:00,
2013-05-16 13:53:00,76.5,66.8,29.84,WSW,257,0.0,2.0,72,0.01,,---,0.01,VWS V14.01,2013-05-16 17:53:00,
2013-05-16 13:58:00,77.0,65.2,29.84,WSW,243,1.0,2.0,67,0.01,,---,0.01,VWS V14.01,2013-05-16 17:58:00,
2013-05-16 14:03:00,78.1,66.7,29.84,WSW,240,1.0,2.0,68,0.00,,---,0.01,VWS V14.01,2013-05-16 18:03:00,
2013-05-16 14:08:00,78.7,64.6,29.84,SW,228,6.0,8.0,62,0.00,,---,0.01,VWS V14.01,2013-05-16 18:08:00,
2013-05-16 14:13:00,79.1,62.6,29.84,West,262,1.0,8.0,57,0.00,,---,0.01,VWS V14.01,2013-05-16 18:13:00,
2013-05-16 14:18:00,79.9,63.3,29.84,WNW,295,1.0,8.0,57,0.00,,---,0.01,VWS V14.01,2013-05-16 18:18:00,
2013-05-16 14:23:00,80.2,61.5,29.84,SW,235,1.0,9.0,53,0.00,,---,0.01,VWS V14.01,2013-05-16 18:23:00,
2013-05-16 14:28:00,80.1,60.4,29.84,ESE,110,3.0,14.0,51,0.00,,---,0.01,VWS V14.01,2013-05-16 18:28:00,
2013-05-16 14:33:00,80.2,60.5,29.85,WSW,238,2.0,6.0,51,0.00,,---,0.01,VWS V14.01,2013-05-16 18:33:00,
2013-05-16 14:38:00,80.3,60.0,29.84,SW,233,4.0,8.0,50,0.00,,---,0.01,VWS V14.01,2013-05-16 18:38:00,
2013-05-16 14:43:00,80.5,60.2,29.85,SSW,207,2.0,8.0,50,0.00,,---,0.01,VWS V14.01,2013-05-16 18:43:00,
2013-05-16 14:48:00,80.6,59.7,29.84,ESE,106,1.0,8.0,49,0.00,,---,0.01,VWS V14.01,2013-05-16 18:48:00,
2013-05-16 14:53:00,80.6,59.1,29.84,WNW,293,3.0,8.0,48,0.00,,---,0.01,VWS V14.01,2013-05-16 18:53:00,
2013-05-16 14:58:00,80.5,59.6,29.84,WNW,302,3.0,8.0,49,0.00,,---,0.01,VWS V14.01,2013-05-16 18:58:00,
2013-05-16 15:03:00,80.7,60.9,29.84,NNW,327,1.0,1.0,51,0.00,,---,0.01,VWS V14.01,2013-05-16 19:03:00,
2013-05-16 15:08:00,81.1,60.7,29.84,WNW,290,2.0,5.0,50,0.00,,---,0.01,VWS V14.01,2013-05-16 19:08:00,
2013-05-16 15:13:00,81.8,61.4,29.84,NW,305,1.0,5.0,50,0.00,,---,0.01,VWS V14.01,2013-05-16 19:13:00,
2013-05-16 15:18:00,82.4,60.8,29.84,South,184,2.0,5.0,48,0.00,,---,0.01,VWS V14.01,2013-05-16 19:18:00,
2013-05-16 15:23:00,82.8,60.5,29.84,North,350,2.0,8.0,47,0.00,,---,0.01,VWS V14.01,2013-05-16 19:23:00,
2013-05-16 15:28:00,83.1,62.0,29.84,NE,34,2.0,8.0,49,0.00,,---,0.01,VWS V14.01,2013-05-16 19:28:00,
2013-05-16 15:33:00,83.4,62.3,29.84,SW,228,3.0,3.0,49,0.00,,---,0.01,VWS V14.01,2013-05-16 19:33:00,
2013-05-16 15:38:00,83.1,62.0,29.84,SW,235,1.0,8.0,49,0.00,,---,0.01,VWS V14.01,2013-05-16 19:38:00,
2013-05-16 15:43:00,82.5,60.8,29.84,NE,46,2.0,10.0,48,0.00,,---,0.01,VWS V14.01,2013-05-16 19:43:00,
2013-05-16 15:48:00,82.5,62.0,29.84,SW,229,0.0,10.0,50,0.00,,---,0.01,VWS V14.01,2013-05-16 19:48:00,
2013-05-16 15:53:00,82.3,62.4,29.83,West,271,2.0,10.0,51,0.00,,---,0.01,VWS V14.01,2013-05-16 19:53:00,
2013-05-16 15:58:00,82.4,61.3,29.83,WSW,242,4.0,10.0,49,0.00,,---,0.01,VWS V14.01,2013-05-16 19:58:00,
2013-05-16 16:03:00,82.0,62.1,29.83,ENE,60,2.0,4.0,51,0.00,,---,0.01,VWS V14.01,2013-05-16 20:03:00,
2013-05-16 16:08:00,81.9,62.0,29.83,SW,224,3.0,6.0,51,0.00,,---,0.01,VWS V14.01,2013-05-16 20:08:00,
2013-05-16 16:13:00,82.2,61.7,29.83,NW,307,2.0,6.0,50,0.00,,---,0.01,VWS V14.01,2013-05-16 20:13:00,
2013-05-16 16:18:00,82.3,62.4,29.83,NNE,20,2.0,7.0,51,0.00,,---,0.01,VWS V14.01,2013-05-16 20:18:00,
2013-05-16 16:23:00,82.3,62.4,29.83,WNW,287,0.0,7.0,51,0.00,,---,0.01,VWS V14.01,2013-05-16 20:23:00,
2013-05-16 16:28:00,82.3,61.2,29.83,WSW,250,1.0,7.0,49,0.00,,---,0.01,VWS V14.01,2013-05-16 20:28:00,
2013-05-16 16:33:00,82.2,62.3,29.83,SSE,158,1.0,5.0,51,0.00,,---,0.01,VWS V14.01,2013-05-16 20:33:00,
2013-05-16 16:38:00,82.1,61.1,29.83,NE,50,1.0,5.0,49,0.00,,---,0.01,VWS V14.01,2013-05-16 20:38:00,
2013-05-16 16:43:00,82.1,61.1,29.83,WSW,248,2.0,5.0,49,0.00,,---,0.01,VWS V14.01,2013-05-16 20:43:00,
2013-05-16 16:48:00,82.0,61.5,29.83,SSW,205,1.0,5.0,50,0.00,,---,0.01,VWS V14.01,2013-05-16 20:48:00,
2013-05-16 16:53:00,82.1,62.8,29.83,ESE,108,0.0,5.0,52,0.00,,---,0.01,VWS V14.01,2013-05-16 20:53:00,
2013-05-16 16:58:00,82.8,63.4,29.84,NNE,19,0.0,5.0,52,0.00,,---,0.01,VWS V14.01,2013-05-16 20:58:00,
2013-05-16 17:03:00,83.0,62.5,29.84,West,267,0.0,2.0,50,0.00,,---,0.01,VWS V14.01,2013-05-16 21:03:00,
2013-05-16 17:08:00,83.1,60.8,29.84,West,262,1.0,2.0,47,0.00,,---,0.01,VWS V14.01,2013-05-16 21:08:00,
2013-05-16 17:13:00,83.4,62.3,29.84,WSW,243,2.0,2.0,49,0.00,,---,0.01,VWS V14.01,2013-05-16 21:13:00,
2013-05-16 17:18:00,83.4,61.7,29.84,South,181,0.0,4.0,48,0.00,,---,0.01,VWS V14.01,2013-05-16 21:18:00,
2013-05-16 17:23:00,82.8,61.1,29.84,NE,51,0.0,4.0,48,0.00,,---,0.01,VWS V14.01,2013-05-16 21:23:00,
2013-05-16 17:28:00,82.8,61.7,29.84,WNW,283,0.0,4.0,49,0.00,,---,0.01,VWS V14.01,2013-05-16 21:28:00,
2013-05-16 17:33:00,82.5,60.3,29.84,NW,304,3.0,3.0,47,0.00,,---,0.01,VWS V14.01,2013-05-16 21:33:00,
2013-05-16 17:38:00,82.4,61.9,29.85,West,273,1.0,3.0,50,0.00,,---,0.01,VWS V14.01,2013-05-16 21:38:00,
2013-05-16 17:43:00,81.9,61.5,29.85,WSW,255,1.0,4.0,50,0.00,,---,0.01,VWS V14.01,2013-05-16 21:43:00,
2013-05-16 17:48:00,81.4,62.1,29.85,SW,226,1.0,4.0,52,0.00,,---,0.01,VWS V14.01,2013-05-16 21:48:00,
2013-05-16 17:53:00,80.6,60.8,29.85,WNW,287,1.0,4.0,51,0.00,,---,0.01,VWS V14.01,2013-05-16 21:53:00,
2013-05-16 17:58:00,80.1,61.4,29.85,West,271,0.0,6.0,53,0.00,,---,0.01,VWS V14.01,2013-05-16 21:58:00,
2013-05-16 18:03:00,79.8,60.6,29.85,West,278,1.0,2.0,52,0.00,,---,0.01,VWS V14.01,2013-05-16 22:03:00,
2013-05-16 18:08:00,79.4,61.3,29.85,SSE,158,2.0,4.0,54,0.00,,---,0.01,VWS V14.01,2013-05-16 22:08:00,
2013-05-16 18:13:00,79.0,61.5,29.85,WSW,254,1.0,4.0,55,0.00,,---,0.01,VWS V14.01,2013-05-16 22:13:00,
2013-05-16 18:18:00,78.8,61.3,29.85,WSW,254,2.0,4.0,55,0.00,,---,0.01,VWS V14.01,2013-05-16 22:18:00,
2013-05-16 18:23:00,78.7,60.7,29.85,WNW,284,1.0,4.0,54,0.00,,---,0.01,VWS V14.01,2013-05-16 22:23:00,
2013-05-16 18:28:00,78.6,61.6,29.85,East,100,1.0,4.0,56,0.00,,---,0.01,VWS V14.01,2013-05-16 22:28:00,
2013-05-16 18:33:00,78.3,61.3,29.85,WSW,255,2.0,3.0,56,0.00,,---,0.01,VWS V14.01,2013-05-16 22:33:00,
2013-05-16 18:38:00,78.0,60.5,29.85,WSW,257,4.0,7.0,55,0.00,,---,0.01,VWS V14.01,2013-05-16 22:38:00,
2013-05-16 18:43:00,77.8,60.9,29.85,ESE,108,2.0,8.0,56,0.00,,---,0.01,VWS V14.01,2013-05-16 22:43:00,
2013-05-16 18:48:00,77.6,61.2,29.86,West,274,5.0,8.0,57,0.00,,---,0.01,VWS V14.01,2013-05-16 22:48:00,
2013-05-16 18:53:00,77.4,61.0,29.86,SSW,213,3.0,8.0,57,0.00,,---,0.01,VWS V14.01,2013-05-16 22:53:00,
2013-05-16 18:58:00,77.4,61.0,29.86,WSW,250,3.0,8.0,57,0.00,,---,0.01,VWS V14.01,2013-05-16 22:58:00,
2013-05-16 19:03:00,77.3,61.4,29.86,WSW,248,0.0,1.0,58,0.00,,---,0.01,VWS V14.01,2013-05-16 23:03:00,
2013-05-16 19:08:00,77.3,61.9,29.86,WSW,256,1.0,2.0,59,0.00,,---,0.01,VWS V14.01,2013-05-16 23:08:00,
2013-05-16 19:13:00,77.3,61.9,29.86,WSW,248,1.0,4.0,59,0.00,,---,0.01,VWS V14.01,2013-05-16 23:13:00,
2013-05-16 19:18:00,77.1,61.2,29.86,WNW,294,3.0,6.0,58,0.00,,---,0.01,VWS V14.01,2013-05-16 23:18:00,
2013-05-16 19:23:00,77.0,61.1,29.87,WSW,256,0.0,6.0,58,0.00,,---,0.01,VWS V14.01,2013-05-16 23:23:00,
2013-05-16 19:28:00,76.8,60.4,29.87,SW,225,2.0,6.0,57,0.00,,---,0.01,VWS V14.01,2013-05-16 23:28:00,
2013-05-16 19:33:00,76.7,60.3,29.87,West,266,1.0,2.0,57,0.00,,---,0.01,VWS V14.01,2013-05-16 23:33:00,
2013-05-16 19:38:00,76.6,60.7,29.87,WSW,238,0.0,2.0,58,0.00,,---,0.01,VWS V14.01,2013-05-16 23:38:00,
2013-05-16 19:43:00,76.5,60.6,29.87,SW,236,0.0,2.0,58,0.00,,---,0.01,VWS V14.01,2013-05-16 23:43:00,
2013-05-16 19:48:00,76.4,60.5,29.88,West,278,0.0,2.0,58,0.00,,---,0.01,VWS V14.01,2013-05-16 23:48:00,
2013-05-16 19:53:00,76.3,60.0,29.88,West,262,1.0,2.0,57,0.00,,---,0.01,VWS V14.01,2013-05-16 23:53:00,
2013-05-16 19:58:00,76.4,60.1,29.88,West,266,1.0,4.0,57,0.00,,---,0.01,VWS V14.01,2013-05-16 23:58:00,
2013-05-16 20:03:00,76.4,59.6,29.88,SW,225,1.0,2.0,56,0.00,,---,0.01,VWS V14.01,2013-05-17 00:03:00,
2013-05-16 20:08:00,76.2,59.9,29.88,SW,225,0.0,2.0,57,0.00,,---,0.01,VWS V14.01,2013-05-17 00:08:00,
2013-05-16 20:13:00,75.9,59.6,29.88,WSW,240,0.0,2.0,57,0.00,,---,0.01,VWS V14.01,2013-05-17 00:13:00,
2013-05-16 20:18:00,75.6,59.8,29.88,WSW,240,0.0,2.0,58,0.00,,---,0.01,VWS V14.01,2013-05-17 00:18:00,
2013-05-16 20:23:00,75.2,59.9,29.88,WSW,240,0.0,2.0,59,0.00,,---,0.01,VWS V14.01,2013-05-17 00:23:00,
2013-05-16 20:28:00,74.8,59.5,29.88,ENE,76,0.0,2.0,59,0.00,,---,0.01,VWS V14.01,2013-05-17 00:28:00,
2013-05-16 20:33:00,74.4,60.1,29.88,ENE,76,0.0,0.0,61,0.00,,---,0.01,VWS V14.01,2013-05-17 00:33:00,
2013-05-16 20:38:00,74.0,59.7,29.88,NE,51,0.0,1.0,61,0.00,,---,0.01,VWS V14.01,2013-05-17 00:38:00,
2013-05-16 20:43:00,73.7,59.9,29.89,NNW,339,0.0,1.0,62,0.00,,---,0.01,VWS V14.01,2013-05-17 00:43:00,
2013-05-16 20:48:00,73.4,60.0,29.89,WNW,293,0.0,1.0,63,0.00,,---,0.01,VWS V14.01,2013-05-17 00:48:00,
2013-05-16 20:53:00,73.1,59.8,29.89,WNW,292,0.0,1.0,63,0.00,,---,0.01,VWS V14.01,2013-05-17 00:53:00,
2013-05-16 20:58:00,72.8,59.9,29.89,West,277,0.0,1.0,64,0.00,,---,0.01,VWS V14.01,2013-05-17 00:58:00,
2013-05-16 21:03:00,72.6,59.7,29.89,SW,233,0.0,1.0,64,0.00,,---,0.01,VWS V14.01,2013-05-17 01:03:00,
2013-05-16 21:08:00,72.4,60.0,29.89,SW,232,0.0,1.0,65,0.00,,---,0.01,VWS V14.01,2013-05-17 01:08:00,
2013-05-16 21:13:00,72.1,60.1,29.90,SSE,151,0.0,1.0,66,0.00,,---,0.01,VWS V14.01,2013-05-17 01:13:00,
2013-05-16 21:18:00,71.9,59.9,29.90,South,188,0.0,1.0,66,0.00,,---,0.01,VWS V14.01,2013-05-17 01:18:00,
2013-05-16 21:23:00,71.8,59.8,29.90,SW,229,0.0,2.0,66,0.00,,---,0.01,VWS V14.01,2013-05-17 01:23:00,
2013-05-16 21:28:00,71.9,59.9,29.90,East,92,0.0,2.0,66,0.00,,---,0.01,VWS V14.01,2013-05-17 01:28:00,
2013-05-16 21:33:00,72.1,60.1,29.90,WSW,249,0.0,0.0,66,0.00,,---,0.01,VWS V14.01,2013-05-17 01:33:00,
2013-05-16 21:38:00,72.1,59.7,29.90,WSW,248,0.0,2.0,65,0.00,,---,0.01,VWS V14.01,2013-05-17 01:38:00,
2013-05-16 21:43:00,72.1,59.3,29.90,SW,215,0.0,2.0,64,0.00,,---,0.01,VWS V14.01,2013-05-17 01:43:00,
2013-05-16 21:48:00,72.5,59.2,29.90,West,274,0.0,3.0,63,0.00,,---,0.01,VWS V14.01,2013-05-17 01:48:00,
2013-05-16 21:53:00,72.7,58.9,29.91,South,179,0.0,3.0,62,0.00,,---,0.01,VWS V14.01,2013-05-17 01:53:00,
2013-05-16 21:58:00,72.6,58.8,29.91,SW,232,1.0,3.0,62,0.00,,---,0.01,VWS V14.01,2013-05-17 01:58:00,
2013-05-16 22:03:00,72.7,59.4,29.91,ESE,106,0.0,1.0,63,0.00,,---,0.01,VWS V14.01,2013-05-17 02:03:00,
2013-05-16 22:08:00,72.5,58.8,29.92,WSW,252,1.0,1.0,62,0.00,,---,0.01,VWS V14.01,2013-05-17 02:08:00,
2013-05-16 22:13:00,72.6,58.4,29.92,West,262,1.0,2.0,61,0.00,,---,0.01,VWS V14.01,2013-05-17 02:13:00,
2013-05-16 22:18:00,72.7,58.5,29.92,NNE,31,2.0,3.0,61,0.00,,---,0.01,VWS V14.01,2013-05-17 02:18:00,
2013-05-16 22:22:00,72.9,58.7,29.92,SE,143,1.0,3.0,61,0.00,,---,0.01,VWS V14.01,2013-05-17 02:22:00,
2013-05-16 22:27:00,73.0,58.8,29.93,WNW,287,0.0,4.0,61,0.00,,---,0.01,VWS V14.01,2013-05-17 02:27:00,
2013-05-16 22:32:00,72.7,58.0,29.93,West,273,0.0,2.0,60,0.00,,---,0.01,VWS V14.01,2013-05-17 02:32:00,
2013-05-16 22:37:00,72.6,58.4,29.93,WSW,245,0.0,3.0,61,0.00,,---,0.01,VWS V14.01,2013-05-17 02:37:00,
2013-05-16 22:42:00,72.5,58.8,29.93,West,263,0.0,3.0,62,0.00,,---,0.01,VWS V14.01,2013-05-17 02:42:00,
2013-05-16 22:47:00,72.2,58.5,29.93,West,277,1.0,3.0,62,0.00,,---,0.01,VWS V14.01,2013-05-17 02:47:00,
2013-05-16 22:52:00,72.0,58.3,29.93,WNW,288,0.0,3.0,62,0.00,,---,0.01,VWS V14.01,2013-05-17 02:52:00,
2013-05-16 22:57:00,71.8,59.0,29.93,WNW,287,0.0,3.0,64,0.00,,---,0.01,VWS V14.01,2013-05-17 02:57:00,
2013-05-16 23:02:00,71.3,58.5,29.93,West,267,1.0,2.0,64,0.00,,---,0.01,VWS V14.01,2013-05-17 03:02:00,
2013-05-16 23:07:00,71.2,58.8,29.94,West,269,0.0,2.0,65,0.00,,---,0.01,VWS V14.01,2013-05-17 03:07:00,
2013-05-16 23:12:00,70.7,58.8,29.93,West,268,0.0,2.0,66,0.00,,---,0.01,VWS V14.01,2013-05-17 03:12:00,
2013-05-16 23:17:00,70.3,59.2,29.93,WSW,253,0.0,2.0,68,0.00,,---,0.01,VWS V14.01,2013-05-17 03:17:00,
2013-05-16 23:22:00,70.1,58.7,29.93,West,267,0.0,3.0,67,0.00,,---,0.01,VWS V14.01,2013-05-17 03:22:00,
2013-05-16 23:27:00,70.1,58.7,29.93,West,272,0.0,4.0,67,0.00,,---,0.01,VWS V14.01,2013-05-17 03:27:00,
2013-05-16 23:32:00,70.1,58.2,29.93,WNW,290,0.0,1.0,66,0.00,,---,0.01,VWS V14.01,2013-05-17 03:32:00,
2013-05-16 23:37:00,70.1,58.2,29.93,WNW,293,0.0,1.0,66,0.00,,---,0.01,VWS V14.01,2013-05-17 03:37:00,
2013-05-16 23:42:00,70.1,57.8,29.93,SW,215,0.0,3.0,65,0.00,,---,0.01,VWS V14.01,2013-05-17 03:42:00,
2013-05-16 23:47:00,70.2,57.9,29.93,WNW,292,0.0,3.0,65,0.00,,---,0.01,VWS V14.01,2013-05-17 03:47:00,
2013-05-16 23:52:00,70.1,58.2,29.93,West,277,0.0,3.0,66,0.00,,---,0.01,VWS V14.01,2013-05-17 03:52:00,
2013-05-16 23:57:00,70.0,57.7,29.94,West,260,0.0,3.0,65,0.00,,---,0.01,VWS V14.01,2013-05-17 03:57:00,